createdAt,value
2019-04-04T00:00:16.272Z,88.60
2019-04-04T00:02:46.109Z,88.20
2019-04-04T00:05:15.216Z,88.20
2019-04-04T00:07:44.344Z,88.40
2019-04-04T00:10:13.397Z,88.90
2019-04-04T00:12:42.527Z,88.30
2019-04-04T00:15:12.980Z,88.20
2019-04-04T00:17:42.595Z,88.10
2019-04-04T00:20:11.610Z,87.90
2019-04-04T00:22:40.711Z,87.60
2019-04-04T00:25:10.495Z,87.80
2019-04-04T00:27:39.828Z,87.80
2019-04-04T00:30:09.233Z,87.60
2019-04-04T00:32:38.394Z,87.50
2019-04-04T00:35:07.495Z,87.30
2019-04-04T00:37:36.580Z,87.30
2019-04-04T00:40:07.244Z,87.40
2019-04-04T00:42:36.409Z,86.90
2019-04-04T00:45:07.181Z,86.90
2019-04-04T00:47:36.164Z,86.40
2019-04-04T00:50:07.027Z,86.70
2019-04-04T00:52:36.245Z,86.90
2019-04-04T00:55:06.720Z,87.00
2019-04-04T00:57:35.760Z,87.30
2019-04-04T01:00:07.293Z,87.90
2019-04-04T01:02:36.280Z,87.90
2019-04-04T01:05:06.347Z,87.90
2019-04-04T01:07:35.797Z,87.50
2019-04-04T01:10:07.522Z,87.40
2019-04-04T01:12:36.606Z,87.10
2019-04-04T01:15:07.622Z,87.30
2019-04-04T01:17:36.725Z,87.20
2019-04-04T01:20:07.725Z,87.00
2019-04-04T01:22:36.872Z,86.90
2019-04-04T01:25:07.020Z,87.10
2019-04-04T01:27:36.904Z,87.00
2019-04-04T01:30:08.276Z,87.30
2019-04-04T01:32:37.598Z,86.80
2019-04-04T01:35:07.644Z,86.50
2019-04-04T01:37:36.840Z,86.30
2019-04-04T01:40:06.413Z,86.20
2019-04-04T01:42:38.087Z,85.80
2019-04-04T01:45:08.445Z,85.50
2019-04-04T01:47:37.581Z,84.90
2019-04-04T01:50:06.905Z,85.00
2019-04-04T01:52:36.136Z,83.60
2019-04-04T01:55:06.392Z,82.30
2019-04-04T01:57:38.571Z,82.20
2019-04-04T02:00:08.166Z,82.40
2019-04-04T02:02:37.489Z,81.80
2019-04-04T02:05:06.781Z,82.20
2019-04-04T02:07:35.974Z,81.50
2019-04-04T02:10:06.882Z,81.30
2019-04-04T02:12:38.388Z,81.10
2019-04-04T02:15:08.841Z,80.90
2019-04-04T02:17:37.848Z,80.70
2019-04-04T02:20:07.432Z,80.40
2019-04-04T02:22:36.398Z,80.70
2019-04-04T02:25:06.756Z,81.10
2019-04-04T02:27:37.681Z,81.40
2019-04-04T02:30:07.894Z,81.30
2019-04-04T02:32:36.914Z,81.60
2019-04-04T02:35:10.013Z,81.40
2019-04-04T02:37:37.980Z,81.40
2019-04-04T02:40:08.877Z,81.60
2019-04-04T02:42:39.073Z,81.60
2019-04-04T02:45:08.484Z,81.50
2019-04-04T02:47:37.653Z,81.30
2019-04-04T02:50:07.653Z,80.90
2019-04-04T02:52:36.908Z,80.90
2019-04-04T02:55:06.409Z,80.70
2019-04-04T02:57:35.555Z,80.70
2019-04-04T03:00:06.425Z,80.90
2019-04-04T03:02:36.926Z,80.90
2019-04-04T03:05:06.593Z,81.00
2019-04-04T03:07:35.803Z,81.20
2019-04-04T03:10:06.057Z,81.00
2019-04-04T03:12:35.147Z,80.90
2019-04-04T03:15:08.863Z,81.20
2019-04-04T03:17:37.058Z,81.20
2019-04-04T03:20:07.337Z,81.30
2019-04-04T03:22:36.457Z,81.20
2019-04-04T03:25:06.213Z,80.80
2019-04-04T03:27:35.221Z,81.00
2019-04-04T03:30:13.407Z,80.90
2019-04-04T03:32:37.134Z,80.60
2019-04-04T03:35:07.097Z,80.40
2019-04-04T03:37:40.623Z,81.10
2019-04-04T03:40:07.181Z,79.70
2019-04-04T03:42:36.180Z,79.80
2019-04-04T03:45:06.454Z,79.90
2019-04-04T03:47:35.549Z,80.00
2019-04-04T03:50:06.629Z,80.30
2019-04-04T03:52:36.076Z,80.80
2019-04-04T03:55:07.035Z,80.70
2019-04-04T03:57:36.015Z,80.60
2019-04-04T04:00:07.495Z,80.60
2019-04-04T04:02:36.805Z,81.30
2019-04-04T04:05:08.870Z,81.30
2019-04-04T04:07:37.881Z,81.30
2019-04-04T04:10:07.235Z,81.70
2019-04-04T04:12:36.223Z,81.80
2019-04-04T04:15:06.228Z,83.00
2019-04-04T04:17:36.492Z,82.40
2019-04-04T04:20:06.815Z,82.80
2019-04-04T04:22:35.831Z,82.40
2019-04-04T04:25:06.172Z,82.70
2019-04-04T04:27:35.214Z,82.10
2019-04-04T04:30:07.256Z,81.90
2019-04-04T04:32:37.422Z,82.30
2019-04-04T04:35:08.590Z,82.40
2019-04-04T04:37:37.634Z,82.30
2019-04-04T04:40:06.755Z,82.60
2019-04-04T04:42:35.869Z,82.50
2019-04-04T04:45:11.002Z,82.70
2019-04-04T04:47:37.350Z,82.80
2019-04-04T04:50:09.686Z,83.40
2019-04-04T04:52:38.162Z,83.10
2019-04-04T04:55:07.367Z,83.20
2019-04-04T04:57:37.216Z,82.80
2019-04-04T05:00:07.438Z,82.80
2019-04-04T05:02:36.505Z,82.80
2019-04-04T05:05:07.214Z,82.80
2019-04-04T05:07:38.427Z,82.60
2019-04-04T05:10:08.554Z,82.50
2019-04-04T05:12:37.874Z,82.50
2019-04-04T05:15:07.048Z,82.60
2019-04-04T05:17:36.257Z,82.70
2019-04-04T05:20:06.964Z,82.90
2019-04-04T05:22:35.925Z,82.60
2019-04-04T05:25:08.736Z,82.70
2019-04-04T05:27:37.907Z,82.60
2019-04-04T05:30:08.458Z,82.40
2019-04-04T05:32:37.842Z,82.50
2019-04-04T05:35:07.661Z,82.50
2019-04-04T05:37:38.297Z,82.60
2019-04-04T05:40:08.221Z,82.40
2019-04-04T05:42:37.297Z,82.30
2019-04-04T05:45:07.827Z,82.20
2019-04-04T05:47:36.938Z,82.20
2019-04-04T05:50:07.314Z,82.40
2019-04-04T05:52:38.096Z,82.40
2019-04-04T05:55:09.956Z,82.40
2019-04-04T05:57:38.762Z,82.40
2019-04-04T06:00:11.281Z,82.10
2019-04-04T06:02:41.108Z,82.70
2019-04-04T06:05:11.354Z,82.60
2019-04-04T06:07:40.566Z,82.60
2019-04-04T06:10:12.039Z,82.20
2019-04-04T06:12:40.527Z,82.00
2019-04-04T06:15:09.848Z,82.50
2019-04-04T06:17:39.831Z,82.70
2019-04-04T06:20:09.592Z,83.10
2019-04-04T06:22:38.846Z,82.80
2019-04-04T06:25:08.804Z,82.60
2019-04-04T06:27:39.911Z,82.60
2019-04-04T06:30:08.799Z,83.10
2019-04-04T06:32:38.965Z,82.60
2019-04-04T06:35:08.467Z,82.90
2019-04-04T06:37:38.782Z,89.20
2019-04-04T06:40:08.890Z,86.50
2019-04-04T06:42:38.088Z,83.70
2019-04-04T06:45:07.629Z,81.80
2019-04-04T06:47:36.693Z,81.40
2019-04-04T06:50:08.079Z,82.10
2019-04-04T06:52:37.470Z,83.00
2019-04-04T06:55:07.172Z,85.30
2019-04-04T06:57:37.372Z,87.40
2019-04-04T07:00:08.665Z,89.20
2019-04-04T07:02:38.021Z,90.30
2019-04-04T07:05:10.591Z,91.00
2019-04-04T07:07:42.987Z,92.00
2019-04-04T07:10:10.597Z,92.10
2019-04-04T07:12:39.628Z,92.50
2019-04-04T07:15:12.467Z,92.90
2019-04-04T07:17:41.043Z,93.30
2019-04-04T07:20:10.578Z,93.30
2019-04-04T07:22:39.634Z,93.40
2019-04-04T07:25:09.003Z,93.60
2019-04-04T07:27:38.096Z,93.80
2019-04-04T07:30:08.166Z,94.40
2019-04-04T07:32:40.823Z,94.70
2019-04-04T07:35:08.321Z,94.50
2019-04-04T07:37:37.342Z,94.80
2019-04-04T07:40:06.714Z,95.10
2019-04-04T07:42:35.887Z,95.10
2019-04-04T07:45:06.857Z,95.30
2019-04-04T07:47:35.865Z,95.50
2019-04-04T07:50:05.951Z,95.80
2019-04-04T07:52:35.268Z,95.50
2019-04-04T07:55:06.066Z,95.50
2019-04-04T07:57:35.112Z,95.90
2019-04-04T08:00:08.371Z,95.90
2019-04-04T08:02:37.373Z,95.90
2019-04-04T08:05:09.386Z,95.80
2019-04-04T08:07:38.395Z,95.90
2019-04-04T08:10:19.589Z,95.80
2019-04-04T08:12:38.748Z,96.00
2019-04-04T08:15:08.144Z,95.90
2019-04-04T08:17:37.230Z,96.10
2019-04-04T08:20:07.113Z,96.20
2019-04-04T08:22:39.675Z,96.40
2019-04-04T08:25:08.844Z,96.20
2019-04-04T08:27:37.946Z,96.30
2019-04-04T08:30:08.754Z,95.90
2019-04-04T08:32:38.026Z,95.80
2019-04-04T08:35:08.237Z,95.70
2019-04-04T08:37:37.295Z,95.70
2019-04-04T08:40:07.372Z,95.60
2019-04-04T08:42:36.328Z,95.80
2019-04-04T08:45:08.460Z,95.60
2019-04-04T08:47:37.602Z,95.60
2019-04-04T08:50:06.912Z,95.50
2019-04-04T08:52:35.948Z,95.20
2019-04-04T08:55:06.916Z,95.50
2019-04-04T08:57:36.028Z,95.40
2019-04-04T09:00:07.536Z,95.40
2019-04-04T09:02:36.685Z,95.50
2019-04-04T09:05:12.073Z,95.60
2019-04-04T09:07:37.893Z,95.60
2019-04-04T09:10:07.738Z,95.30
2019-04-04T09:12:36.689Z,95.40
2019-04-04T09:15:06.994Z,95.60
2019-04-04T09:17:36.010Z,95.50
2019-04-04T09:20:09.378Z,95.60
2019-04-04T09:22:37.800Z,95.30
2019-04-04T09:25:10.300Z,95.50
2019-04-04T09:27:38.566Z,95.60
2019-04-04T09:30:08.616Z,95.40
2019-04-04T09:32:37.849Z,95.40
2019-04-04T09:35:08.405Z,95.40
2019-04-04T09:37:37.599Z,95.10
2019-04-04T09:40:08.837Z,94.90
2019-04-04T09:42:37.818Z,95.00
2019-04-04T09:45:09.017Z,95.20
2019-04-04T09:47:39.593Z,94.70
2019-04-04T09:50:09.498Z,95.10
2019-04-04T09:52:38.512Z,95.30
2019-04-04T09:55:10.937Z,95.40
2019-04-04T09:57:39.938Z,95.20
2019-04-04T10:00:12.096Z,95.10
2019-04-04T10:02:41.610Z,95.20
2019-04-04T10:05:11.592Z,95.10
2019-04-04T10:07:40.651Z,95.10
2019-04-04T10:10:10.534Z,95.20
2019-04-04T10:12:39.530Z,95.20
2019-04-04T10:15:08.927Z,94.60
2019-04-04T10:17:38.021Z,95.00
2019-04-04T10:20:07.625Z,94.80
2019-04-04T10:22:37.156Z,94.40
2019-04-04T10:25:06.380Z,94.90
2019-04-04T10:27:35.407Z,95.10
2019-04-04T10:30:06.886Z,94.50
2019-04-04T10:32:36.066Z,94.00
2019-04-04T10:35:07.113Z,94.20
2019-04-04T10:37:36.200Z,94.20
2019-04-04T10:40:09.522Z,93.90
2019-04-04T10:42:38.549Z,93.80
2019-04-04T10:45:08.054Z,94.10
2019-04-04T10:47:37.091Z,93.70
2019-04-04T10:50:08.525Z,93.80
2019-04-04T10:52:37.647Z,94.00
2019-04-04T10:55:07.481Z,93.90
2019-04-04T10:57:36.641Z,94.00
2019-04-04T11:00:10.196Z,94.50
2019-04-04T11:02:39.480Z,94.50
2019-04-04T11:05:08.745Z,94.20
2019-04-04T11:07:37.853Z,94.50
2019-04-04T11:10:07.274Z,94.80
2019-04-04T11:12:36.296Z,94.90
2019-04-04T11:15:07.024Z,95.30
2019-04-04T11:17:36.058Z,95.60
2019-04-04T11:20:06.927Z,95.40
2019-04-04T11:22:36.019Z,95.60
2019-04-04T11:25:06.084Z,95.50
2019-04-04T11:27:35.225Z,95.40
2019-04-04T11:30:06.613Z,95.50
2019-04-04T11:32:35.925Z,96.10
2019-04-04T11:35:06.865Z,96.40
2019-04-04T11:37:36.007Z,96.50
2019-04-04T11:40:05.838Z,96.90
2019-04-04T11:42:36.461Z,96.80
2019-04-04T11:45:06.095Z,96.80
2019-04-04T11:47:35.792Z,96.70
2019-04-04T11:50:07.140Z,96.50
2019-04-04T11:52:36.221Z,96.60
2019-04-04T11:55:06.828Z,96.30
2019-04-04T11:57:36.450Z,96.40
2019-04-04T12:00:07.358Z,96.30
2019-04-04T12:02:36.395Z,96.20
2019-04-04T12:05:07.698Z,96.60
2019-04-04T12:07:38.421Z,96.30
2019-04-04T12:10:08.367Z,96.00
2019-04-04T12:12:37.513Z,96.30
2019-04-04T12:15:09.901Z,96.10
2019-04-04T12:17:39.066Z,96.30
2019-04-04T12:20:09.374Z,96.10
2019-04-04T12:22:38.588Z,96.30
2019-04-04T12:25:08.062Z,96.30
2019-04-04T12:27:37.175Z,95.90
2019-04-04T12:30:07.366Z,95.90
2019-04-04T12:32:36.419Z,95.80
2019-04-04T12:35:06.097Z,95.50
2019-04-04T12:37:35.337Z,95.90
2019-04-04T12:40:19.504Z,95.40
2019-04-04T12:42:38.245Z,95.10
2019-04-04T12:45:08.361Z,95.10
2019-04-04T12:47:37.912Z,95.10
2019-04-04T12:50:07.393Z,95.20
2019-04-04T12:52:37.000Z,95.70
2019-04-04T12:55:07.339Z,95.80
2019-04-04T12:57:36.489Z,95.60
2019-04-04T13:00:08.513Z,95.30
2019-04-04T13:02:37.612Z,95.00
2019-04-04T13:05:08.374Z,95.00
2019-04-04T13:07:37.474Z,95.10
2019-04-04T13:10:11.756Z,94.50
2019-04-04T13:12:39.489Z,94.70
2019-04-04T13:15:09.982Z,95.00
2019-04-04T13:17:39.017Z,94.70
2019-04-04T13:20:08.589Z,94.60
2019-04-04T13:22:37.720Z,94.50
2019-04-04T13:25:08.627Z,94.60
2019-04-04T13:27:37.933Z,94.70
2019-04-04T13:30:09.302Z,94.90
2019-04-04T13:32:38.539Z,95.20
2019-04-04T13:35:08.804Z,95.50
2019-04-04T13:37:37.997Z,95.40
2019-04-04T13:40:07.586Z,95.50
2019-04-04T13:42:36.689Z,95.30
2019-04-04T13:45:09.167Z,95.50
2019-04-04T13:47:40.175Z,95.80
2019-04-04T13:50:12.510Z,95.10
2019-04-04T13:52:40.645Z,95.40
2019-04-04T13:55:09.984Z,95.10
2019-04-04T13:57:39.555Z,94.70
2019-04-04T14:00:09.784Z,94.50
2019-04-04T14:02:38.927Z,94.60
2019-04-04T14:05:11.485Z,94.40
2019-04-04T14:07:40.071Z,94.70
2019-04-04T14:10:09.586Z,94.60
2019-04-04T14:12:38.750Z,94.60
2019-04-04T14:15:12.502Z,94.90
2019-04-04T14:17:43.661Z,94.90
2019-04-04T14:20:12.415Z,94.90
2019-04-04T14:22:41.526Z,94.90
2019-04-04T14:25:10.850Z,94.80
2019-04-04T14:27:39.997Z,95.50
2019-04-04T14:30:10.270Z,95.40
2019-04-04T14:32:39.308Z,95.40
2019-04-04T14:35:10.304Z,95.30
2019-04-04T14:37:39.318Z,95.30
2019-04-04T14:40:09.161Z,95.60
2019-04-04T14:42:38.189Z,95.80
2019-04-04T14:45:08.497Z,95.90
2019-04-04T14:47:37.620Z,96.00
2019-04-04T14:50:08.939Z,95.90
2019-04-04T14:52:39.602Z,96.40
2019-04-04T14:55:09.076Z,96.10
2019-04-04T14:57:38.118Z,95.90
2019-04-04T15:00:10.739Z,95.60
2019-04-04T15:02:39.946Z,95.60
2019-04-04T15:05:09.329Z,95.50
2019-04-04T15:07:38.368Z,95.60
2019-04-04T15:10:07.448Z,95.20
2019-04-04T15:12:36.448Z,95.10
2019-04-04T15:15:06.821Z,95.40
2019-04-04T15:17:35.933Z,95.10
2019-04-04T15:20:06.904Z,95.10
2019-04-04T15:22:36.165Z,95.20
2019-04-04T15:25:06.003Z,94.70
2019-04-04T15:27:35.043Z,94.90
2019-04-04T15:30:06.087Z,95.00
2019-04-04T15:32:35.146Z,95.20
2019-04-04T15:35:05.444Z,95.00
2019-04-04T15:37:34.514Z,95.20
2019-04-04T15:40:05.864Z,94.90
2019-04-04T15:42:35.484Z,95.30
2019-04-04T15:45:06.363Z,95.40
2019-04-04T15:47:35.591Z,95.10
2019-04-04T15:50:06.873Z,95.20
2019-04-04T15:52:36.132Z,95.00
2019-04-04T15:55:05.995Z,95.00
2019-04-04T15:57:36.037Z,94.90
2019-04-04T16:00:07.200Z,95.30
2019-04-04T16:02:36.395Z,95.30
2019-04-04T16:05:07.285Z,95.10
2019-04-04T16:07:36.382Z,95.00
2019-04-04T16:10:07.249Z,95.20
2019-04-04T16:12:38.200Z,95.10
2019-04-04T16:15:07.733Z,95.20
2019-04-04T16:17:36.809Z,95.10
2019-04-04T16:20:07.935Z,95.00
2019-04-04T16:22:36.961Z,95.10
2019-04-04T16:25:07.348Z,95.20
2019-04-04T16:27:36.429Z,95.10
2019-04-04T16:30:08.156Z,95.20
2019-04-04T16:32:37.485Z,95.20
2019-04-04T16:35:07.793Z,95.60
2019-04-04T16:37:36.743Z,95.50
2019-04-04T16:40:10.646Z,95.50
2019-04-04T16:42:39.837Z,95.50
2019-04-04T16:45:09.586Z,95.60
2019-04-04T16:47:38.563Z,95.60
2019-04-04T16:50:08.188Z,95.80
2019-04-04T16:52:37.250Z,95.70
2019-04-04T16:55:08.091Z,95.70
2019-04-04T16:57:37.183Z,95.60
2019-04-04T17:00:09.407Z,95.70
2019-04-04T17:02:38.566Z,95.90
2019-04-04T17:05:10.748Z,95.90
2019-04-04T17:07:38.960Z,96.00
2019-04-04T17:10:09.208Z,95.90
2019-04-04T17:12:38.473Z,95.70
2019-04-04T17:15:08.190Z,95.90
2019-04-04T17:17:37.371Z,96.10
2019-04-04T17:20:08.685Z,96.10
2019-04-04T17:22:38.412Z,96.20
2019-04-04T17:25:07.589Z,96.10
2019-04-04T17:27:37.289Z,96.20
2019-04-04T17:30:09.855Z,96.10
2019-04-04T17:32:42.225Z,95.80
2019-04-04T17:35:11.855Z,95.70
2019-04-04T17:37:41.440Z,95.90
2019-04-04T17:40:11.178Z,96.00
2019-04-04T17:42:40.779Z,95.90
2019-04-04T17:45:11.475Z,96.10
2019-04-04T17:47:41.088Z,96.00
2019-04-04T17:50:12.122Z,96.20
2019-04-04T17:52:41.435Z,96.00
2019-04-04T17:55:10.877Z,95.90
2019-04-04T17:57:41.985Z,96.10
2019-04-04T18:00:12.682Z,96.50
2019-04-04T18:02:42.015Z,96.60
2019-04-04T18:05:11.275Z,96.20
2019-04-04T18:07:40.410Z,96.70
2019-04-04T18:10:10.161Z,96.90
2019-04-04T18:12:40.948Z,96.80
2019-04-04T18:15:10.833Z,97.00
2019-04-04T18:17:39.916Z,96.80
2019-04-04T18:20:10.379Z,96.60
2019-04-04T18:22:39.407Z,96.80
2019-04-04T18:25:08.785Z,97.00
2019-04-04T18:27:38.111Z,97.40
2019-04-04T18:30:09.818Z,97.10
2019-04-04T18:32:38.820Z,97.00
2019-04-04T18:35:08.730Z,97.10
2019-04-04T18:37:38.124Z,97.30
2019-04-04T18:40:09.322Z,97.00
2019-04-04T18:42:38.743Z,97.00
2019-04-04T18:45:08.411Z,97.20
2019-04-04T18:47:37.436Z,97.50
2019-04-04T18:50:07.675Z,97.50
2019-04-04T18:52:36.623Z,97.50
2019-04-04T18:55:19.149Z,97.50
2019-04-04T18:57:38.513Z,97.60
2019-04-04T19:00:10.664Z,97.10
2019-04-04T19:02:40.206Z,97.10
2019-04-04T19:05:09.921Z,96.70
2019-04-04T19:07:39.915Z,97.00
2019-04-04T19:10:09.816Z,97.20
2019-04-04T19:12:38.932Z,96.90
2019-04-04T19:15:08.453Z,96.90
2019-04-04T19:17:38.966Z,97.00
2019-04-04T19:20:10.118Z,97.20
2019-04-04T19:22:39.658Z,97.10
2019-04-04T19:25:09.518Z,97.20
2019-04-04T19:27:38.545Z,97.00
2019-04-04T19:30:09.439Z,97.40
2019-04-04T19:32:38.570Z,97.30
2019-04-04T19:35:08.924Z,97.50
2019-04-04T19:37:37.965Z,97.30
2019-04-04T19:40:08.761Z,97.70
2019-04-04T19:42:37.777Z,97.70
2019-04-04T19:45:08.607Z,97.50
2019-04-04T19:47:37.859Z,97.50
2019-04-04T19:50:11.581Z,97.80
2019-04-04T19:52:40.738Z,97.80
2019-04-04T19:55:10.001Z,97.80
2019-04-04T19:57:39.012Z,97.70
2019-04-04T20:00:09.177Z,97.30
2019-04-04T20:02:38.378Z,97.70
2019-04-04T20:05:08.027Z,97.80
2019-04-04T20:07:37.080Z,97.80
2019-04-04T20:10:07.720Z,97.70
2019-04-04T20:12:36.917Z,97.60
2019-04-04T20:15:06.806Z,97.80
2019-04-04T20:17:36.042Z,97.80
2019-04-04T20:20:08.113Z,97.40
2019-04-04T20:22:37.237Z,97.70
2019-04-04T20:25:07.653Z,97.80
2019-04-04T20:27:36.854Z,98.00
2019-04-04T20:30:14.247Z,97.80
2019-04-04T20:32:43.005Z,97.50
2019-04-04T20:35:12.291Z,97.50
2019-04-04T20:37:41.267Z,97.50
2019-04-04T20:40:10.638Z,97.10
2019-04-04T20:42:39.721Z,97.00
2019-04-04T20:45:08.892Z,97.10
2019-04-04T20:47:58.881Z,96.90
2019-04-04T20:50:28.095Z,97.00
2019-04-04T20:52:57.126Z,97.40
2019-04-04T20:55:26.174Z,97.20
2019-04-04T20:57:55.303Z,97.20
2019-04-04T21:00:24.235Z,97.00
2019-04-04T21:02:53.227Z,97.40
2019-04-04T21:05:22.348Z,97.20
2019-04-04T21:07:51.441Z,97.50
2019-04-04T21:10:20.433Z,97.80
2019-04-04T21:12:49.474Z,97.90
2019-04-04T21:15:18.782Z,97.90
2019-04-04T21:17:48.072Z,97.70
2019-04-04T21:20:17.120Z,97.70
2019-04-04T21:22:46.090Z,97.50
2019-04-04T21:25:15.220Z,97.30
2019-04-04T21:27:44.468Z,97.20
2019-04-04T21:30:14.042Z,97.30
2019-04-04T21:32:43.078Z,97.60
2019-04-04T21:35:12.212Z,97.60
2019-04-04T21:37:41.190Z,97.30
2019-04-04T21:40:11.003Z,96.90
2019-04-04T21:42:40.016Z,96.60
2019-04-04T21:45:09.429Z,96.30
2019-04-04T21:47:38.391Z,96.30
2019-04-04T21:50:08.409Z,96.20
2019-04-04T21:52:37.832Z,96.30
2019-04-04T21:55:07.163Z,96.40
2019-04-04T21:57:36.217Z,96.60
2019-04-04T22:00:07.890Z,96.70
2019-04-04T22:02:37.004Z,96.80
2019-04-04T22:05:09.466Z,96.30
2019-04-04T22:07:38.400Z,96.60
2019-04-04T22:10:08.567Z,96.30
2019-04-04T22:12:37.514Z,96.30
2019-04-04T22:15:08.423Z,96.40
2019-04-04T22:17:37.439Z,96.20
2019-04-04T22:20:07.003Z,96.20
2019-04-04T22:22:36.149Z,96.50
2019-04-04T22:25:06.718Z,96.70
2019-04-04T22:27:35.948Z,96.60
2019-04-04T22:30:07.900Z,97.10
2019-04-04T22:32:37.159Z,96.50
2019-04-04T22:35:07.287Z,96.30
2019-04-04T22:37:36.574Z,96.70
2019-04-04T22:40:07.061Z,96.80
2019-04-04T22:42:36.075Z,96.60
2019-04-04T22:45:08.399Z,96.60
2019-04-04T22:47:37.515Z,96.80
2019-04-04T22:50:08.251Z,96.70
2019-04-04T22:52:37.333Z,96.60
2019-04-04T22:55:06.351Z,96.50
2019-04-04T22:57:35.499Z,96.70
2019-04-04T23:00:07.100Z,96.60
2019-04-04T23:02:36.348Z,96.10
2019-04-04T23:05:05.920Z,96.30
2019-04-04T23:07:35.152Z,96.40
2019-04-04T23:10:06.410Z,96.50
2019-04-04T23:12:35.458Z,96.30
2019-04-04T23:15:09.324Z,96.40
2019-04-04T23:17:38.603Z,96.40
2019-04-04T23:20:09.384Z,95.90
2019-04-04T23:22:38.347Z,95.80
2019-04-04T23:25:07.989Z,95.80
2019-04-04T23:27:36.961Z,95.70
2019-04-04T23:30:08.387Z,95.90
2019-04-04T23:32:37.456Z,95.60
2019-04-04T23:35:07.947Z,95.80
2019-04-04T23:37:37.269Z,96.00
2019-04-04T23:40:06.658Z,95.90
2019-04-04T23:42:35.747Z,96.00
2019-04-04T23:45:07.879Z,95.80
2019-04-04T23:47:42.599Z,95.80
2019-04-04T23:50:08.020Z,95.90
2019-04-04T23:52:37.093Z,95.40
2019-04-04T23:55:07.017Z,95.60
2019-04-04T23:57:36.137Z,95.40
